createdAt,value
2023-05-13T00:00:10.821Z,55.05
2023-05-13T00:02:59.849Z,55.48
2023-05-13T00:05:28.600Z,55.80
2023-05-13T00:08:02.000Z,55.64
2023-05-13T00:10:32.239Z,56.97
2023-05-13T00:13:01.272Z,57.31
2023-05-13T00:15:30.669Z,56.76
2023-05-13T00:17:59.718Z,56.37
2023-05-13T00:20:28.430Z,56.35
2023-05-13T00:22:57.416Z,57.50
2023-05-13T00:25:26.047Z,59.30
2023-05-13T00:27:56.961Z,58.44
2023-05-13T00:30:25.784Z,58.22
2023-05-13T00:32:55.007Z,57.62
2023-05-13T00:35:23.860Z,57.04
2023-05-13T00:37:52.973Z,56.34
2023-05-13T00:40:25.636Z,56.72
2023-05-13T00:42:56.383Z,56.96
2023-05-13T00:45:25.090Z,57.31
2023-05-13T00:47:54.272Z,57.87
2023-05-13T00:50:23.937Z,58.80
2023-05-13T00:52:53.450Z,59.51
2023-05-13T00:55:22.530Z,58.78
2023-05-13T00:57:51.544Z,60.18
2023-05-13T01:00:22.285Z,60.84
2023-05-13T01:03:01.781Z,60.27
2023-05-13T01:05:43.863Z,59.93
2023-05-13T01:08:30.410Z,60.37
2023-05-13T01:11:04.972Z,60.67
2023-05-13T01:13:43.257Z,61.00
2023-05-13T01:16:23.294Z,61.44
2023-05-13T01:18:59.736Z,61.64
2023-05-13T01:21:30.205Z,61.58
2023-05-13T01:23:59.634Z,61.41
2023-05-13T01:26:28.846Z,62.71
2023-05-13T01:28:58.399Z,62.37
2023-05-13T01:31:27.339Z,61.18
2023-05-13T01:33:56.485Z,61.55
2023-05-13T01:36:25.864Z,61.59
2023-05-13T01:38:58.438Z,61.77
2023-05-13T01:41:29.463Z,62.41
2023-05-13T01:43:58.779Z,62.64
2023-05-13T01:46:27.998Z,62.83
2023-05-13T01:48:57.345Z,63.31
2023-05-13T01:51:26.221Z,63.47
2023-05-13T01:53:56.628Z,63.60
2023-05-13T01:56:26.209Z,63.82
2023-05-13T01:58:55.465Z,64.26
2023-05-13T02:01:24.162Z,64.63
2023-05-13T02:03:54.796Z,64.81
2023-05-13T02:06:23.545Z,64.78
2023-05-13T02:08:52.636Z,65.32
2023-05-13T02:11:23.079Z,65.02
2023-05-13T02:13:52.084Z,65.10
2023-05-13T02:16:21.808Z,64.76
2023-05-13T02:18:51.655Z,65.15
2023-05-13T02:21:20.697Z,65.73
2023-05-13T02:23:50.094Z,65.92
2023-05-13T02:26:18.734Z,66.85
2023-05-13T02:28:49.490Z,67.10
2023-05-13T02:31:18.486Z,67.20
2023-05-13T02:33:48.117Z,67.86
2023-05-13T02:36:17.304Z,68.82
2023-05-13T02:38:46.742Z,69.26
2023-05-13T02:41:18.218Z,68.58
2023-05-13T02:43:48.570Z,68.20
2023-05-13T02:46:17.391Z,68.80
2023-05-13T02:48:47.365Z,68.45
2023-05-13T02:51:16.105Z,70.22
2023-05-13T02:53:45.501Z,68.28
2023-05-13T02:56:16.321Z,67.84
2023-05-13T02:58:45.452Z,67.66
2023-05-13T03:01:15.519Z,67.77
2023-05-13T03:03:44.554Z,67.14
2023-05-13T03:06:13.706Z,68.73
2023-05-13T03:08:42.622Z,68.81
2023-05-13T03:11:11.757Z,69.76
2023-05-13T03:13:41.363Z,68.53
2023-05-13T03:16:10.200Z,68.08
2023-05-13T03:18:40.806Z,67.58
2023-05-13T03:21:09.549Z,67.52
2023-05-13T03:23:38.683Z,68.05
2023-05-13T03:26:08.143Z,68.46
2023-05-13T03:28:37.201Z,67.40
2023-05-13T03:31:06.643Z,68.14
2023-05-13T03:33:40.732Z,67.79
2023-05-13T03:36:10.044Z,68.33
2023-05-13T03:38:39.148Z,72.51
2023-05-13T03:41:07.901Z,74.27
2023-05-13T03:43:36.999Z,74.09
2023-05-13T03:46:11.112Z,74.56
2023-05-13T03:48:41.520Z,69.76
2023-05-13T03:51:10.182Z,70.98
2023-05-13T03:53:39.295Z,73.80
2023-05-13T03:56:08.160Z,74.84
2023-05-13T03:58:37.207Z,73.26
2023-05-13T04:01:06.578Z,69.77
2023-05-13T04:03:35.954Z,70.39
2023-05-13T04:06:06.342Z,70.53
2023-05-13T04:08:35.359Z,71.03
2023-05-13T04:11:04.020Z,71.07
2023-05-13T04:13:36.822Z,71.04
2023-05-13T04:16:05.927Z,71.34
2023-05-13T04:18:35.718Z,71.20
2023-05-13T04:21:09.224Z,69.63
2023-05-13T04:23:38.166Z,68.33
2023-05-13T04:26:06.856Z,69.22
2023-05-13T04:28:36.480Z,69.03
2023-05-13T04:31:05.320Z,67.74
2023-05-13T04:33:37.588Z,65.61
2023-05-13T04:36:08.380Z,66.05
2023-05-13T04:38:38.090Z,65.57
2023-05-13T04:41:07.581Z,65.69
2023-05-13T04:43:41.672Z,65.22
2023-05-13T04:46:10.516Z,65.26
2023-05-13T04:48:40.307Z,64.91
2023-05-13T04:51:10.805Z,62.95
2023-05-13T04:53:40.222Z,61.33
2023-05-13T04:56:10.814Z,60.36
2023-05-13T04:58:40.093Z,62.00
2023-05-13T05:01:09.926Z,62.92
2023-05-13T05:03:38.943Z,60.54
2023-05-13T05:06:08.198Z,62.57
2023-05-13T05:08:38.542Z,62.01
2023-05-13T05:11:07.340Z,61.72
2023-05-13T05:13:37.973Z,60.68
2023-05-13T05:16:08.703Z,61.32
2023-05-13T05:18:38.266Z,60.52
2023-05-13T05:21:07.316Z,58.11
2023-05-13T05:23:36.295Z,57.48
2023-05-13T05:26:11.715Z,56.49
2023-05-13T05:28:44.644Z,55.62
2023-05-13T05:31:14.841Z,52.77
2023-05-13T05:33:45.353Z,53.60
2023-05-13T05:36:14.136Z,53.19
2023-05-13T05:38:43.177Z,54.73
2023-05-13T05:41:15.059Z,55.84
2023-05-13T05:43:44.471Z,55.04
2023-05-13T05:46:13.168Z,54.10
2023-05-13T05:48:42.219Z,56.01
2023-05-13T05:51:10.961Z,56.75
2023-05-13T05:53:41.160Z,54.57
2023-05-13T05:56:14.451Z,54.37
2023-05-13T05:58:44.438Z,53.39
2023-05-13T06:01:13.752Z,51.04
2023-05-13T06:03:42.961Z,49.02
2023-05-13T06:06:11.732Z,48.91
2023-05-13T06:08:40.737Z,46.08
2023-05-13T06:11:10.044Z,45.67
2023-05-13T06:13:40.473Z,45.85
2023-05-13T06:16:09.371Z,43.87
2023-05-13T06:18:40.360Z,43.51
2023-05-13T06:21:09.247Z,42.91
2023-05-13T06:23:38.760Z,42.59
2023-05-13T06:26:07.675Z,41.99
2023-05-13T06:28:38.919Z,42.08
2023-05-13T06:31:07.730Z,39.65
2023-05-13T06:33:36.705Z,38.74
2023-05-13T06:36:06.372Z,37.91
2023-05-13T06:38:36.650Z,38.38
2023-05-13T06:41:06.290Z,37.90
2023-05-13T06:43:38.883Z,36.77
2023-05-13T06:46:23.031Z,36.50
2023-05-13T06:48:53.758Z,34.94
2023-05-13T06:51:22.548Z,35.04
2023-05-13T06:53:51.512Z,34.19
2023-05-13T06:56:20.580Z,34.73
2023-05-13T06:58:51.450Z,32.70
2023-05-13T07:01:20.742Z,31.85
2023-05-13T07:03:50.461Z,32.19
2023-05-13T07:06:19.301Z,32.16
2023-05-13T07:08:48.218Z,32.05
2023-05-13T07:11:16.902Z,31.65
2023-05-13T07:13:46.772Z,31.43
2023-05-13T07:16:18.327Z,30.25
2023-05-13T07:18:47.375Z,29.49
2023-05-13T07:21:16.659Z,28.91
2023-05-13T07:23:45.721Z,29.20
2023-05-13T07:26:14.533Z,30.04
2023-05-13T07:28:43.566Z,27.93
2023-05-13T07:31:12.421Z,28.34
2023-05-13T07:33:43.034Z,28.11
2023-05-13T07:36:11.708Z,27.83
2023-05-13T07:38:40.641Z,28.23
2023-05-13T07:41:09.343Z,27.30
2023-05-13T07:43:40.543Z,28.29
2023-05-13T07:46:10.760Z,28.01
2023-05-13T07:48:39.794Z,28.75
2023-05-13T07:51:10.633Z,27.57
2023-05-13T07:53:39.755Z,28.11
2023-05-13T07:56:08.598Z,26.59
2023-05-13T07:58:37.745Z,28.01
2023-05-13T08:01:08.140Z,27.04
2023-05-13T08:03:37.330Z,27.28
2023-05-13T08:06:06.939Z,27.63
2023-05-13T08:08:37.271Z,27.22
2023-05-13T08:11:06.456Z,26.39
2023-05-13T08:13:35.503Z,26.83
2023-05-13T08:16:04.732Z,28.08
2023-05-13T08:18:33.872Z,28.99
2023-05-13T08:21:02.551Z,27.34
2023-05-13T08:23:44.259Z,27.00
2023-05-13T08:26:15.319Z,26.81
2023-05-13T08:28:44.383Z,27.20
2023-05-13T08:31:14.310Z,27.60
2023-05-13T08:33:46.024Z,28.20
2023-05-13T08:36:16.443Z,26.87
2023-05-13T08:38:45.605Z,26.38
2023-05-13T08:41:16.520Z,27.67
2023-05-13T08:43:47.974Z,28.48
2023-05-13T08:46:19.628Z,27.12
2023-05-13T08:48:49.892Z,27.46
2023-05-13T08:51:18.817Z,26.94
2023-05-13T08:53:49.607Z,27.45
2023-05-13T08:56:19.759Z,27.24
2023-05-13T08:58:48.746Z,27.83
2023-05-13T09:01:18.354Z,26.99
2023-05-13T09:04:03.271Z,26.44
2023-05-13T09:06:32.441Z,25.57
2023-05-13T09:09:02.998Z,26.59
2023-05-13T09:11:34.806Z,25.63
2023-05-13T09:14:07.266Z,26.24
2023-05-13T09:16:36.480Z,24.86
2023-05-13T09:19:08.070Z,25.32
2023-05-13T09:21:37.199Z,25.00
2023-05-13T09:24:11.917Z,24.62
2023-05-13T09:26:43.417Z,24.87
2023-05-13T09:29:26.643Z,24.32
2023-05-13T09:31:58.146Z,24.29
2023-05-13T09:34:29.998Z,24.31
2023-05-13T09:37:02.741Z,23.86
2023-05-13T09:39:34.711Z,23.96
2023-05-13T09:42:05.724Z,23.02
2023-05-13T09:44:35.140Z,22.62
2023-05-13T09:47:04.501Z,21.95
2023-05-13T09:49:33.618Z,22.80
2023-05-13T09:52:02.256Z,23.58
2023-05-13T09:54:37.086Z,21.87
2023-05-13T09:57:08.087Z,22.40
2023-05-13T09:59:37.103Z,22.21
2023-05-13T10:02:08.893Z,22.07
2023-05-13T10:04:38.605Z,22.33
2023-05-13T10:07:10.000Z,22.28
2023-05-13T10:09:41.092Z,22.76
2023-05-13T10:12:16.028Z,22.45
2023-05-13T10:14:45.491Z,21.61
2023-05-13T10:17:15.215Z,21.75
2023-05-13T10:19:44.980Z,21.75
2023-05-13T10:22:16.116Z,21.22
2023-05-13T10:24:45.520Z,20.65
2023-05-13T10:27:16.966Z,21.73
2023-05-13T10:29:47.695Z,21.38
2023-05-13T10:32:16.707Z,21.61
2023-05-13T10:34:47.529Z,20.80
2023-05-13T10:37:56.320Z,20.69
2023-05-13T10:40:55.015Z,22.17
2023-05-13T10:43:28.744Z,22.06
2023-05-13T10:46:01.551Z,23.12
2023-05-13T10:48:41.865Z,21.47
2023-05-13T10:51:15.731Z,22.71
2023-05-13T10:53:50.450Z,20.86
2023-05-13T10:56:24.313Z,21.37
2023-05-13T10:59:02.493Z,21.03
2023-05-13T11:01:36.389Z,21.76
2023-05-13T11:04:07.117Z,20.94
2023-05-13T11:06:38.935Z,20.00
2023-05-13T11:09:09.815Z,21.70
2023-05-13T11:11:39.301Z,21.29
2023-05-13T11:14:17.321Z,19.84
2023-05-13T11:16:55.181Z,21.51
2023-05-13T11:19:28.161Z,22.77
2023-05-13T11:21:58.990Z,23.17
2023-05-13T11:24:28.110Z,23.74
2023-05-13T11:27:00.013Z,24.40
2023-05-13T11:29:32.456Z,25.40
2023-05-13T11:32:04.360Z,24.19
2023-05-13T11:34:34.869Z,24.56
2023-05-13T11:37:12.095Z,25.56
2023-05-13T11:39:42.469Z,24.70
2023-05-13T11:42:12.944Z,24.77
2023-05-13T11:44:48.388Z,24.51
2023-05-13T11:47:28.457Z,25.77
2023-05-13T11:49:57.360Z,23.99
2023-05-13T11:52:26.406Z,22.50
2023-05-13T11:54:57.436Z,23.66
2023-05-13T11:57:28.969Z,23.53
2023-05-13T12:00:00.878Z,23.20
2023-05-13T12:02:31.870Z,22.98
2023-05-13T12:05:04.476Z,24.21
2023-05-13T12:07:35.078Z,23.92
2023-05-13T12:10:06.399Z,23.92
2023-05-13T12:12:40.419Z,24.91
2023-05-13T12:15:14.369Z,25.52
2023-05-13T12:17:44.030Z,24.58
2023-05-13T12:20:15.388Z,23.96
2023-05-13T12:22:54.316Z,24.66
2023-05-13T12:25:47.700Z,25.21
2023-05-13T12:28:18.971Z,25.13
2023-05-13T12:30:57.144Z,25.54
2023-05-13T12:33:28.996Z,24.96
2023-05-13T12:36:19.998Z,25.39
2023-05-13T12:39:01.057Z,25.17
2023-05-13T12:41:32.608Z,26.03
2023-05-13T12:44:04.011Z,26.19
2023-05-13T12:46:35.050Z,25.70
2023-05-13T12:49:06.271Z,25.46
2023-05-13T12:51:35.011Z,26.09
2023-05-13T12:54:04.049Z,24.85
2023-05-13T12:56:33.048Z,24.51
2023-05-13T12:59:02.013Z,24.85
2023-05-13T13:01:30.892Z,25.74
2023-05-13T13:04:01.481Z,25.24
2023-05-13T13:06:31.101Z,25.51
2023-05-13T13:09:00.282Z,25.30
2023-05-13T13:11:30.016Z,25.28
2023-05-13T13:13:59.010Z,25.65
2023-05-13T13:16:27.715Z,24.74
2023-05-13T13:19:01.505Z,24.85
2023-05-13T13:21:32.202Z,25.43
2023-05-13T13:24:01.223Z,25.25
2023-05-13T13:26:29.922Z,24.71
2023-05-13T13:28:58.898Z,24.50
2023-05-13T13:31:27.663Z,25.02
2023-05-13T13:33:58.964Z,24.76
2023-05-13T13:36:27.805Z,24.01
2023-05-13T13:38:58.063Z,24.92
2023-05-13T13:41:26.859Z,24.91
2023-05-13T13:43:55.928Z,25.41
2023-05-13T13:46:24.633Z,23.63
2023-05-13T13:48:53.660Z,24.14
2023-05-13T13:51:23.132Z,24.17
2023-05-13T13:53:52.269Z,24.51
2023-05-13T13:56:22.402Z,24.72
2023-05-13T13:58:51.302Z,24.84
2023-05-13T14:01:20.107Z,25.07
2023-05-13T14:03:52.038Z,25.27
2023-05-13T14:06:21.286Z,25.02
2023-05-13T14:08:51.847Z,25.19
2023-05-13T14:11:21.991Z,25.21
2023-05-13T14:13:51.047Z,25.25
2023-05-13T14:16:19.876Z,25.19
2023-05-13T14:18:48.954Z,25.25
2023-05-13T14:21:18.237Z,25.78
2023-05-13T14:23:47.229Z,25.14
2023-05-13T14:26:16.241Z,25.28
2023-05-13T14:28:47.002Z,25.37
2023-05-13T14:31:15.915Z,25.63
2023-05-13T14:33:45.281Z,25.34
2023-05-13T14:36:16.236Z,24.54
2023-05-13T14:38:45.372Z,25.09
2023-05-13T14:41:19.706Z,23.60
2023-05-13T14:43:50.452Z,24.33
2023-05-13T14:46:19.361Z,24.28
2023-05-13T14:48:48.269Z,24.10
2023-05-13T14:51:17.743Z,24.49
2023-05-13T14:53:46.929Z,24.50
2023-05-13T14:56:15.771Z,24.78
2023-05-13T14:58:44.953Z,24.62
2023-05-13T15:01:15.232Z,25.23
2023-05-13T15:03:44.140Z,25.18
2023-05-13T15:06:12.955Z,25.24
2023-05-13T15:08:41.873Z,24.89
2023-05-13T15:11:10.510Z,24.58
2023-05-13T15:13:39.403Z,24.78
2023-05-13T15:16:09.020Z,25.18
2023-05-13T15:18:39.153Z,25.71
2023-05-13T15:21:08.247Z,26.24
2023-05-13T15:23:36.933Z,25.27
2023-05-13T15:26:06.101Z,25.68
2023-05-13T15:28:34.755Z,25.89
2023-05-13T15:31:03.858Z,26.50
2023-05-13T15:33:33.155Z,26.09
2023-05-13T15:36:03.554Z,27.26
2023-05-13T15:38:32.517Z,27.11
2023-05-13T15:41:03.549Z,26.63
2023-05-13T15:43:34.200Z,26.55
2023-05-13T15:46:03.502Z,27.47
2023-05-13T15:48:32.322Z,28.02
2023-05-13T15:51:03.537Z,28.20
2023-05-13T15:53:33.809Z,28.88
2023-05-13T15:56:02.801Z,28.63
2023-05-13T15:58:31.900Z,29.23
2023-05-13T16:01:00.861Z,29.09
2023-05-13T16:03:29.541Z,29.95
2023-05-13T16:05:58.497Z,29.33
2023-05-13T16:08:27.438Z,29.82
2023-05-13T16:10:57.800Z,30.89
2023-05-13T16:13:26.482Z,30.07
2023-05-13T16:15:55.747Z,30.66
2023-05-13T16:18:24.930Z,29.95
2023-05-13T16:20:54.915Z,30.38
2023-05-13T16:23:23.585Z,30.38
2023-05-13T16:25:52.615Z,30.40
2023-05-13T16:28:22.655Z,29.77
2023-05-13T16:30:52.267Z,29.88
2023-05-13T16:33:20.993Z,30.74
2023-05-13T16:35:50.219Z,31.19
2023-05-13T16:38:19.075Z,30.66
2023-05-13T16:40:48.006Z,31.03
2023-05-13T16:43:16.776Z,30.64
2023-05-13T16:45:47.236Z,30.53
2023-05-13T16:48:16.174Z,30.97
2023-05-13T16:50:45.491Z,30.11
2023-05-13T16:53:14.234Z,29.92
2023-05-13T16:55:43.264Z,29.77
2023-05-13T16:58:11.944Z,30.32
2023-05-13T17:00:40.943Z,29.93
2023-05-13T17:03:13.376Z,30.67
2023-05-13T17:05:42.679Z,30.94
2023-05-13T17:08:11.467Z,31.32
2023-05-13T17:10:40.541Z,30.87
2023-05-13T17:13:09.758Z,30.73
2023-05-13T17:15:38.644Z,30.91
2023-05-13T17:18:07.488Z,30.95
2023-05-13T17:20:37.955Z,31.26
2023-05-13T17:23:06.772Z,31.66
2023-05-13T17:25:35.812Z,32.57
2023-05-13T17:28:08.019Z,33.14
2023-05-13T17:30:37.079Z,33.93
2023-05-13T17:33:06.173Z,33.98
2023-05-13T17:35:35.370Z,34.37
2023-05-13T17:38:05.506Z,34.58
2023-05-13T17:40:34.588Z,36.40
2023-05-13T17:43:04.076Z,39.39
2023-05-13T17:45:35.609Z,39.55
2023-05-13T17:48:05.130Z,40.43
2023-05-13T17:50:34.301Z,42.08
2023-05-13T17:53:04.533Z,46.67
2023-05-13T17:55:33.604Z,44.38
2023-05-13T17:58:02.372Z,46.41
2023-05-13T18:00:31.398Z,49.24
2023-05-13T18:03:00.059Z,48.73
2023-05-13T18:05:29.272Z,47.29
2023-05-13T18:07:58.176Z,46.10
2023-05-13T18:10:29.050Z,47.37
2023-05-13T18:12:57.930Z,46.76
2023-05-13T18:15:26.918Z,47.81
2023-05-13T18:17:55.765Z,48.33
2023-05-13T18:20:25.322Z,48.95
2023-05-13T18:22:54.210Z,49.08
2023-05-13T18:25:23.267Z,45.39
2023-05-13T18:27:53.691Z,47.54
2023-05-13T18:30:22.846Z,47.47
2023-05-13T18:32:51.833Z,48.29
2023-05-13T18:35:21.560Z,49.11
2023-05-13T18:37:50.495Z,48.64
2023-05-13T18:40:19.598Z,50.05
2023-05-13T18:42:48.465Z,49.19
2023-05-13T18:45:19.015Z,49.12
2023-05-13T18:47:47.813Z,49.85
2023-05-13T18:50:16.748Z,49.06
2023-05-13T18:52:46.093Z,49.70
2023-05-13T18:55:15.118Z,51.27
2023-05-13T18:57:43.900Z,51.89
2023-05-13T19:00:14.022Z,53.10
2023-05-13T19:02:44.329Z,51.46
2023-05-13T19:05:13.656Z,52.49
2023-05-13T19:07:42.392Z,53.89
2023-05-13T19:10:12.100Z,53.50
2023-05-13T19:12:41.071Z,52.95
2023-05-13T19:15:11.484Z,52.08
2023-05-13T19:17:41.806Z,52.99
2023-05-13T19:20:13.542Z,53.90
2023-05-13T19:22:42.263Z,53.85
2023-05-13T19:25:11.506Z,54.18
2023-05-13T19:27:40.681Z,54.47
2023-05-13T19:30:11.243Z,54.67
2023-05-13T19:32:39.937Z,55.24
2023-05-13T19:35:11.586Z,55.01
2023-05-13T19:37:40.404Z,55.47
2023-05-13T19:40:11.113Z,55.90
2023-05-13T19:42:39.831Z,56.31
2023-05-13T19:45:10.682Z,57.71
2023-05-13T19:47:39.731Z,58.48
2023-05-13T19:50:09.563Z,58.08
2023-05-13T19:52:43.599Z,58.11
2023-05-13T19:55:13.220Z,56.40
2023-05-13T19:57:43.534Z,57.09
2023-05-13T20:00:13.898Z,58.00
2023-05-13T20:02:42.782Z,58.00
2023-05-13T20:05:12.058Z,57.17
2023-05-13T20:07:42.147Z,57.02
2023-05-13T20:10:12.550Z,57.34
2023-05-13T20:12:41.575Z,57.51
2023-05-13T20:15:11.554Z,57.20
2023-05-13T20:17:40.272Z,57.48
2023-05-13T20:20:10.684Z,57.06
2023-05-13T20:22:39.369Z,57.80
2023-05-13T20:25:11.121Z,58.17
2023-05-13T20:27:39.820Z,58.15
2023-05-13T20:30:11.374Z,58.25
2023-05-13T20:32:40.263Z,58.23
2023-05-13T20:35:10.691Z,59.29
2023-05-13T20:37:39.485Z,57.65
2023-05-13T20:40:11.386Z,57.95
2023-05-13T20:42:40.129Z,58.37
2023-05-13T20:45:10.365Z,58.61
2023-05-13T20:47:38.967Z,59.14
2023-05-13T20:50:09.635Z,59.69
2023-05-13T20:52:38.423Z,59.62
2023-05-13T20:55:11.140Z,59.60
2023-05-13T20:57:39.841Z,59.36
2023-05-13T21:00:10.908Z,59.57
2023-05-13T21:02:39.774Z,59.32
2023-05-13T21:05:09.595Z,60.19
2023-05-13T21:07:38.386Z,61.06
2023-05-13T21:10:10.339Z,59.85
2023-05-13T21:12:39.070Z,60.65
2023-05-13T21:15:11.067Z,60.41
2023-05-13T21:17:40.836Z,59.66
2023-05-13T21:20:12.184Z,59.76
2023-05-13T21:22:40.919Z,60.76
2023-05-13T21:25:11.860Z,61.09
2023-05-13T21:27:40.786Z,60.85
2023-05-13T21:30:11.141Z,60.09
2023-05-13T21:32:39.883Z,60.51
2023-05-13T21:35:09.695Z,61.23
2023-05-13T21:37:38.650Z,61.77
2023-05-13T21:40:11.115Z,61.82
2023-05-13T21:42:39.813Z,62.42
2023-05-13T21:45:10.302Z,61.48
2023-05-13T21:47:39.017Z,61.71
2023-05-13T21:50:11.037Z,62.37
2023-05-13T21:52:39.928Z,62.35
2023-05-13T21:55:11.250Z,62.22
2023-05-13T21:57:39.949Z,63.03
2023-05-13T22:00:15.188Z,63.37
2023-05-13T22:02:47.119Z,63.81
2023-05-13T22:05:16.432Z,63.25
2023-05-13T22:07:45.180Z,63.04
2023-05-13T22:10:15.502Z,63.42
2023-05-13T22:12:44.245Z,63.86
2023-05-13T22:15:13.599Z,64.33
2023-05-13T22:17:42.361Z,64.22
2023-05-13T22:20:13.068Z,64.57
2023-05-13T22:22:41.736Z,64.09
2023-05-13T22:25:11.026Z,64.42
2023-05-13T22:27:41.042Z,64.86
2023-05-13T22:30:10.874Z,65.06
2023-05-13T22:32:40.125Z,65.29
2023-05-13T22:35:10.676Z,65.65
2023-05-13T22:37:39.357Z,65.84
2023-05-13T22:40:11.579Z,66.28
2023-05-13T22:42:41.611Z,67.08
2023-05-13T22:45:12.375Z,66.90
2023-05-13T22:47:40.998Z,66.64
2023-05-13T22:50:12.346Z,66.72
2023-05-13T22:52:41.076Z,66.73
2023-05-13T22:55:11.095Z,67.08
2023-05-13T22:57:41.245Z,67.82
2023-05-13T23:00:12.299Z,67.39
2023-05-13T23:02:41.162Z,67.64
2023-05-13T23:05:10.191Z,68.28
2023-05-13T23:07:38.919Z,68.23
2023-05-13T23:10:09.009Z,68.20
2023-05-13T23:12:37.854Z,67.97
2023-05-13T23:15:11.692Z,68.03
2023-05-13T23:17:40.384Z,68.20
2023-05-13T23:20:11.034Z,68.82
2023-05-13T23:22:39.971Z,69.46
2023-05-13T23:25:10.574Z,69.52
2023-05-13T23:27:39.289Z,70.00
2023-05-13T23:30:11.709Z,70.67
2023-05-13T23:32:40.436Z,70.80
2023-05-13T23:35:10.756Z,71.20
2023-05-13T23:37:39.499Z,71.32
2023-05-13T23:40:10.067Z,71.45
2023-05-13T23:42:39.395Z,71.24
2023-05-13T23:45:11.397Z,71.43
2023-05-13T23:47:40.201Z,71.81
2023-05-13T23:50:10.126Z,72.53
2023-05-13T23:52:39.096Z,72.76
2023-05-13T23:55:09.319Z,72.81
2023-05-13T23:57:38.352Z,73.17
